weather.gov     
National Weather Service

Terminal Aerodrome Forecast
NWS Homepage
This page is being discontinued on March 12, 2014.
The same data is available at this site. Please update your bookmarks.
Thank you, and we apologize for the inconvenience.
Please send an email to SR-SRH.Webmaster@noaa.gov with any concerns.


Current Version
Previous Version:    01  02  03  04  05  06  07  08  09  10  11  12  13  14  
[Printable]
223
FTUS41 KBOX 021415 AAA
TAFMHT
TAF AMD
KMHT 021415Z 0214/0312 01008KT 6SM BR OVC015
     FM021800 02009KT P6SM BKN040
     FM022000 04008KT P6SM BKN080
     FM030000 06004KT P6SM SCT100
     FM030600 36004KT P6SM FEW250=


223
FTUS41 KBOX 021415 AAA
TAFMHT
TAF AMD
KMHT 021415Z 0214/0312 01008KT 6SM BR OVC015
     FM021800 02009KT P6SM BKN040
     FM022000 04008KT P6SM BKN080
     FM030000 06004KT P6SM SCT100
     FM030600 36004KT P6SM FEW250=




U.S. Dept. of Commerce
NOAA National Weather Service
1325 East West Highway
Silver Spring, MD 20910
E-mail: w-nws.webmaster@noaa.gov
Page last modified: May 16, 2007
NATIONAL WEATHER SERVICE: for Safety, for Work, for Fun - FOR LIFE